createdAt,value
2023-01-17T00:00:00.899Z,46.33
2023-01-17T00:02:32.392Z,43.33
2023-01-17T00:05:19.866Z,43.92
2023-01-17T00:08:07.217Z,41.08
2023-01-17T00:10:35.559Z,40.92
2023-01-17T00:13:05.301Z,49.88
2023-01-17T00:15:33.896Z,61.65
2023-01-17T00:18:02.439Z,57.67
2023-01-17T00:20:50.969Z,65.03
2023-01-17T00:23:48.097Z,67.10
2023-01-17T00:26:19.204Z,63.40
2023-01-17T00:28:48.166Z,67.75
2023-01-17T00:31:17.965Z,66.72
2023-01-17T00:33:47.215Z,66.88
2023-01-17T00:36:15.793Z,56.38
2023-01-17T00:38:44.245Z,58.50
2023-01-17T00:41:15.219Z,44.85
2023-01-17T00:44:01.880Z,55.75
2023-01-17T00:46:48.562Z,54.42
2023-01-17T00:49:34.860Z,48.35
2023-01-17T00:52:21.689Z,50.08
2023-01-17T00:55:08.511Z,66.32
2023-01-17T00:57:55.354Z,67.68
2023-01-17T01:00:42.243Z,72.25
2023-01-17T01:03:30.841Z,70.13
2023-01-17T01:06:19.228Z,63.95
2023-01-17T01:09:06.136Z,69.10
2023-01-17T01:11:53.264Z,78.22
2023-01-17T01:14:39.742Z,87.43
2023-01-17T01:17:26.815Z,80.72
2023-01-17T01:20:13.942Z,86.95
2023-01-17T01:23:00.796Z,81.47
2023-01-17T01:25:47.772Z,82.78
2023-01-17T01:28:35.390Z,77.75
2023-01-17T01:31:23.557Z,67.03
2023-01-17T01:33:53.829Z,77.25
2023-01-17T01:36:22.134Z,70.82
2023-01-17T01:38:51.673Z,74.13
2023-01-17T01:41:20.262Z,65.60
2023-01-17T01:43:50.432Z,63.38
2023-01-17T01:46:23.401Z,68.32
2023-01-17T01:48:57.035Z,55.22
2023-01-17T01:54:08.315Z,52.67
2023-01-17T01:56:37.138Z,50.40
2023-01-17T01:59:08.961Z,44.92
2023-01-17T02:01:37.874Z,49.13
2023-01-17T02:04:11.145Z,58.80
2023-01-17T02:07:11.710Z,43.47
2023-01-17T02:09:40.344Z,49.28
2023-01-17T02:12:09.657Z,44.90
2023-01-17T02:14:38.419Z,40.00
2023-01-17T02:17:15.332Z,51.17
2023-01-17T02:20:02.871Z,55.22
2023-01-17T02:22:31.416Z,54.30
2023-01-17T02:25:08.625Z,48.42
2023-01-17T02:27:55.672Z,44.05
2023-01-17T02:30:37.531Z,40.13
2023-01-17T02:33:37.555Z,43.92
2023-01-17T02:36:25.695Z,48.80
2023-01-17T02:39:22.019Z,44.60
2023-01-17T02:41:57.246Z,47.33
2023-01-17T02:44:25.867Z,41.45
2023-01-17T02:46:57.191Z,48.22
2023-01-17T02:49:31.043Z,54.15
2023-01-17T02:52:34.503Z,49.88
2023-01-17T02:55:23.961Z,45.80
2023-01-17T02:58:10.331Z,47.05
2023-01-17T03:01:06.232Z,44.83
2023-01-17T03:03:52.414Z,36.15
2023-01-17T03:06:40.397Z,37.58
2023-01-17T03:09:09.772Z,43.30
2023-01-17T03:11:38.511Z,36.60
2023-01-17T03:14:07.084Z,36.63
2023-01-17T03:16:35.725Z,40.58
2023-01-17T03:19:04.836Z,43.47
2023-01-17T03:21:33.524Z,41.97
2023-01-17T03:24:02.139Z,41.30
2023-01-17T03:26:31.038Z,38.28
2023-01-17T03:28:59.691Z,36.65
2023-01-17T03:31:28.413Z,34.50
2023-01-17T03:33:56.627Z,32.42
2023-01-17T03:36:25.196Z,35.28
2023-01-17T03:38:54.145Z,31.55
2023-01-17T03:41:22.760Z,31.77
2023-01-17T03:43:51.412Z,28.02
2023-01-17T03:46:23.189Z,30.33
2023-01-17T03:48:51.912Z,33.78
2023-01-17T03:51:20.414Z,29.75
2023-01-17T03:53:49.228Z,29.27
2023-01-17T03:56:17.860Z,34.47
2023-01-17T03:58:46.126Z,28.33
2023-01-17T04:01:14.942Z,33.92
2023-01-17T04:03:43.706Z,29.30
2023-01-17T04:06:12.494Z,31.77
2023-01-17T04:08:41.245Z,28.60
2023-01-17T04:11:10.321Z,30.63
2023-01-17T04:13:39.149Z,27.85
2023-01-17T04:16:08.032Z,31.05
2023-01-17T04:18:36.311Z,34.03
2023-01-17T04:21:04.867Z,32.33
2023-01-17T04:23:33.178Z,34.30
2023-01-17T04:26:01.418Z,38.45
2023-01-17T04:28:30.011Z,31.42
2023-01-17T04:31:02.435Z,32.00
2023-01-17T04:33:31.011Z,32.08
2023-01-17T04:35:59.613Z,29.02
2023-01-17T04:38:28.321Z,30.40
2023-01-17T04:40:56.846Z,27.92
2023-01-17T04:43:25.375Z,33.20
2023-01-17T04:45:57.782Z,34.90
2023-01-17T04:48:27.451Z,35.65
2023-01-17T04:51:06.717Z,29.90
2023-01-17T04:53:35.384Z,30.38
2023-01-17T04:56:04.298Z,32.92
2023-01-17T04:58:34.584Z,32.40
2023-01-17T05:01:07.645Z,33.05
2023-01-17T05:03:37.184Z,51.30
2023-01-17T05:06:06.419Z,46.78
2023-01-17T05:08:35.087Z,42.55
2023-01-17T05:11:03.362Z,41.45
2023-01-17T05:13:32.018Z,50.28
2023-01-17T05:16:00.691Z,39.70
2023-01-17T05:18:29.033Z,38.42
2023-01-17T05:21:04.076Z,42.30
2023-01-17T05:23:33.845Z,80.35
2023-01-17T05:26:02.781Z,37.97
2023-01-17T05:28:31.382Z,41.50
2023-01-17T05:31:00.048Z,36.60
2023-01-17T05:33:28.589Z,55.60
2023-01-17T05:35:56.811Z,42.00
2023-01-17T05:38:25.678Z,43.30
2023-01-17T05:40:54.532Z,49.08
2023-01-17T05:43:24.294Z,39.72
2023-01-17T05:45:52.705Z,35.67
2023-01-17T05:48:22.013Z,35.28
2023-01-17T05:50:55.057Z,30.45
2023-01-17T05:53:23.806Z,28.27
2023-01-17T05:55:52.480Z,29.80
2023-01-17T05:58:22.793Z,28.90
2023-01-17T06:00:51.580Z,27.25
2023-01-17T06:03:20.611Z,31.08
2023-01-17T06:05:49.891Z,24.20
2023-01-17T06:08:18.648Z,26.60
2023-01-17T06:10:47.250Z,27.40
2023-01-17T06:13:18.103Z,26.90
2023-01-17T06:15:46.805Z,27.55
2023-01-17T06:18:17.668Z,24.23
2023-01-17T06:20:46.544Z,28.00
2023-01-17T06:23:16.115Z,32.13
2023-01-17T06:25:48.960Z,29.55
2023-01-17T06:28:22.131Z,32.92
2023-01-17T06:30:51.287Z,31.00
2023-01-17T06:33:20.061Z,31.33
2023-01-17T06:35:52.481Z,30.63
2023-01-17T06:38:20.833Z,33.55
2023-01-17T06:40:49.574Z,32.28
2023-01-17T06:43:17.666Z,31.83
2023-01-17T06:45:46.446Z,30.10
2023-01-17T06:48:15.227Z,34.70
2023-01-17T06:50:43.996Z,29.17
2023-01-17T06:53:12.719Z,31.25
2023-01-17T06:55:41.561Z,29.60
2023-01-17T06:58:11.249Z,31.23
2023-01-17T07:00:41.112Z,28.67
2023-01-17T07:03:21.536Z,26.02
2023-01-17T07:05:50.298Z,26.75
2023-01-17T07:08:19.946Z,26.40
2023-01-17T07:10:49.749Z,32.22
2023-01-17T07:13:18.118Z,34.65
2023-01-17T07:15:46.795Z,35.05
2023-01-17T07:18:16.051Z,32.00
2023-01-17T07:20:45.343Z,29.90
2023-01-17T07:23:14.132Z,31.88
2023-01-17T07:25:42.927Z,27.40
2023-01-17T07:28:11.606Z,31.92
2023-01-17T07:30:40.299Z,27.67
2023-01-17T07:33:09.500Z,30.67
2023-01-17T07:35:38.739Z,31.50
2023-01-17T07:38:12.522Z,30.80
2023-01-17T07:40:42.402Z,30.67
2023-01-17T07:43:18.175Z,32.90
2023-01-17T07:45:51.967Z,26.20
2023-01-17T07:48:22.339Z,28.55
2023-01-17T07:50:55.325Z,37.67
2023-01-17T07:53:28.098Z,28.25
2023-01-17T07:55:57.269Z,31.80
2023-01-17T07:58:25.919Z,27.35
2023-01-17T08:01:06.106Z,26.17
2023-01-17T08:03:37.938Z,28.50
2023-01-17T08:06:07.104Z,28.70
2023-01-17T08:08:35.687Z,24.30
2023-01-17T08:11:04.302Z,21.08
2023-01-17T08:13:32.724Z,24.00
2023-01-17T08:16:03.343Z,19.67
2023-01-17T08:18:32.192Z,20.40
2023-01-17T08:21:00.892Z,27.20
2023-01-17T08:23:29.205Z,23.30
2023-01-17T08:26:02.461Z,23.98
2023-01-17T08:28:31.198Z,27.73
2023-01-17T08:30:59.866Z,26.35
2023-01-17T08:33:28.727Z,24.75
2023-01-17T08:35:57.603Z,22.13
2023-01-17T08:38:26.837Z,25.40
2023-01-17T08:40:56.042Z,24.40
2023-01-17T08:43:24.727Z,22.48
2023-01-17T08:45:57.569Z,28.58
2023-01-17T08:48:26.322Z,31.33
2023-01-17T08:50:55.115Z,24.92
2023-01-17T08:53:24.756Z,29.40
2023-01-17T08:55:59.846Z,25.90
2023-01-17T08:58:30.605Z,27.27
2023-01-17T09:01:06.944Z,30.23
2023-01-17T09:03:40.712Z,23.90
2023-01-17T09:06:11.614Z,21.88
2023-01-17T09:08:40.618Z,26.90
2023-01-17T09:11:11.130Z,23.83
2023-01-17T09:13:40.469Z,24.52
2023-01-17T09:16:09.438Z,24.55
2023-01-17T09:18:38.522Z,21.35
2023-01-17T09:21:15.708Z,25.75
2023-01-17T09:23:44.908Z,23.20
2023-01-17T09:26:26.595Z,24.17
2023-01-17T09:28:55.403Z,22.52
2023-01-17T09:31:25.108Z,23.27
2023-01-17T09:33:54.490Z,23.80
2023-01-17T09:36:23.599Z,23.90
2023-01-17T09:38:58.241Z,30.98
2023-01-17T09:41:34.090Z,36.50
2023-01-17T09:44:09.433Z,38.95
2023-01-17T09:46:44.605Z,30.15
2023-01-17T09:49:32.923Z,31.67
2023-01-17T09:52:01.898Z,26.52
2023-01-17T09:54:35.822Z,37.08
2023-01-17T09:57:22.119Z,33.65
2023-01-17T10:00:03.148Z,39.03
2023-01-17T10:03:27.918Z,31.25
2023-01-17T10:06:15.322Z,26.45
2023-01-17T10:08:49.300Z,28.25
2023-01-17T10:11:36.274Z,28.70
2023-01-17T10:14:25.722Z,27.45
2023-01-17T10:17:09.993Z,25.73
2023-01-17T10:20:00.799Z,26.70
2023-01-17T10:22:52.505Z,33.20
2023-01-17T10:25:43.844Z,30.92
2023-01-17T10:28:21.590Z,39.10
2023-01-17T10:30:56.354Z,30.38
2023-01-17T10:33:32.548Z,34.83
2023-01-17T10:36:16.779Z,28.13
2023-01-17T10:38:49.459Z,22.67
2023-01-17T10:41:18.014Z,31.37
2023-01-17T10:44:04.474Z,26.17
2023-01-17T10:47:10.805Z,31.95
2023-01-17T10:49:41.595Z,35.13
2023-01-17T10:52:31.458Z,35.88
2023-01-17T10:55:10.103Z,35.90
2023-01-17T10:57:44.457Z,24.65
2023-01-17T11:00:31.577Z,27.55
2023-01-17T11:03:00.224Z,25.92
2023-01-17T11:05:31.543Z,29.77
2023-01-17T11:08:08.297Z,27.58
2023-01-17T11:10:41.224Z,34.03
2023-01-17T11:13:31.281Z,34.97
2023-01-17T11:16:05.240Z,35.67
2023-01-17T11:18:37.257Z,39.50
2023-01-17T11:21:24.211Z,54.30
2023-01-17T11:23:57.847Z,39.95
2023-01-17T11:29:34.705Z,32.47
2023-01-17T11:32:23.150Z,30.63
2023-01-17T11:35:07.048Z,33.10
2023-01-17T11:40:18.754Z,30.58
2023-01-17T11:42:47.373Z,39.63
2023-01-17T11:45:33.977Z,34.80
2023-01-17T11:48:14.261Z,37.55
2023-01-17T11:51:05.463Z,38.58
2023-01-17T11:53:36.190Z,34.92
2023-01-17T11:56:12.518Z,36.72
2023-01-17T11:58:43.151Z,42.67
2023-01-17T12:01:39.074Z,35.30
2023-01-17T12:04:27.133Z,46.95
2023-01-17T12:07:32.088Z,44.80
2023-01-17T12:10:52.229Z,39.05
2023-01-17T12:13:44.862Z,35.65
2023-01-17T12:16:40.202Z,45.15
2023-01-17T12:19:26.831Z,49.33
2023-01-17T12:22:19.582Z,37.15
2023-01-17T12:24:48.138Z,42.05
2023-01-17T12:27:43.627Z,44.67
2023-01-17T12:30:35.393Z,41.92
2023-01-17T12:33:39.507Z,41.45
2023-01-17T12:36:18.952Z,41.17
2023-01-17T12:38:49.866Z,49.65
2023-01-17T12:41:29.074Z,43.97
2023-01-17T12:44:01.010Z,42.38
2023-01-17T12:46:39.853Z,47.40
2023-01-17T12:49:44.598Z,48.28
2023-01-17T12:52:15.564Z,51.83
2023-01-17T12:54:46.977Z,49.35
2023-01-17T12:57:49.628Z,53.03
2023-01-17T13:00:24.339Z,49.22
2023-01-17T13:03:11.632Z,48.95
2023-01-17T13:05:43.530Z,51.45
2023-01-17T13:08:31.658Z,42.63
2023-01-17T13:11:19.785Z,46.25
2023-01-17T13:13:52.070Z,48.70
2023-01-17T13:16:32.600Z,44.72
2023-01-17T13:19:08.799Z,40.05
2023-01-17T13:21:37.515Z,42.00
2023-01-17T13:24:18.839Z,36.70
2023-01-17T13:27:26.389Z,40.80
2023-01-17T13:30:06.793Z,46.08
2023-01-17T13:32:57.620Z,34.42
2023-01-17T13:35:44.239Z,38.50
2023-01-17T13:38:33.898Z,33.55
2023-01-17T13:41:05.532Z,38.42
2023-01-17T13:44:03.198Z,45.95
2023-01-17T13:46:32.380Z,54.38
2023-01-17T13:49:30.573Z,41.05
2023-01-17T13:52:12.231Z,52.97
2023-01-17T13:54:53.604Z,37.80
2023-01-17T13:57:29.998Z,53.70
2023-01-17T14:00:00.332Z,47.08
2023-01-17T14:02:34.548Z,49.92
2023-01-17T14:05:21.945Z,38.70
2023-01-17T14:08:00.715Z,42.88
2023-01-17T14:10:32.280Z,47.03
2023-01-17T14:13:01.415Z,45.88
2023-01-17T14:15:32.709Z,44.58
2023-01-17T14:18:02.956Z,39.22
2023-01-17T14:20:41.918Z,41.45
2023-01-17T14:23:27.416Z,40.88
2023-01-17T14:25:58.379Z,54.90
2023-01-17T14:28:31.055Z,36.90
2023-01-17T14:31:01.113Z,41.63
2023-01-17T14:33:37.580Z,49.08
2023-01-17T14:36:09.495Z,50.90
2023-01-17T14:38:44.618Z,42.45
2023-01-17T14:41:20.966Z,48.58
2023-01-17T14:43:50.430Z,51.10
2023-01-17T14:46:33.182Z,49.00
2023-01-17T14:49:03.938Z,45.92
2023-01-17T14:51:36.363Z,43.80
2023-01-17T14:54:15.129Z,45.13
2023-01-17T14:56:43.455Z,48.95
2023-01-17T14:59:22.837Z,52.97
2023-01-17T15:02:07.503Z,49.88
2023-01-17T15:04:40.570Z,45.10
2023-01-17T15:07:11.833Z,47.30
2023-01-17T15:09:40.590Z,36.95
2023-01-17T15:12:12.234Z,45.40
2023-01-17T15:14:43.580Z,50.00
2023-01-17T15:17:28.116Z,59.75
2023-01-17T15:19:59.446Z,46.70
2023-01-17T15:22:28.374Z,48.25
2023-01-17T15:24:57.729Z,52.67
2023-01-17T15:27:26.588Z,56.83
2023-01-17T15:29:55.638Z,44.47
2023-01-17T15:32:25.988Z,52.30
2023-01-17T15:34:55.263Z,45.20
2023-01-17T15:37:35.840Z,52.33
2023-01-17T15:40:19.974Z,50.72
2023-01-17T15:42:57.851Z,55.38
2023-01-17T15:45:34.060Z,50.67
2023-01-17T15:48:41.458Z,46.60
2023-01-17T15:51:11.899Z,38.70
2023-01-17T15:53:43.333Z,40.28
2023-01-17T15:56:34.845Z,43.92
2023-01-17T15:59:29.340Z,40.58
2023-01-17T16:02:00.324Z,39.58
2023-01-17T16:04:33.809Z,45.20
2023-01-17T16:07:23.344Z,42.35
2023-01-17T16:09:51.894Z,47.92
2023-01-17T16:12:20.571Z,40.33
2023-01-17T16:15:02.822Z,40.67
2023-01-17T16:17:37.905Z,48.45
2023-01-17T16:20:10.873Z,48.83
2023-01-17T16:22:39.469Z,38.45
2023-01-17T16:25:18.700Z,43.75
2023-01-17T16:27:47.053Z,40.00
2023-01-17T16:30:17.731Z,38.63
2023-01-17T16:32:50.744Z,44.67
2023-01-17T16:35:22.128Z,48.90
2023-01-17T16:37:55.401Z,43.72
2023-01-17T16:40:26.336Z,48.65
2023-01-17T16:42:56.796Z,59.83
2023-01-17T16:45:28.656Z,52.38
2023-01-17T16:47:57.505Z,50.85
2023-01-17T16:50:26.599Z,57.20
2023-01-17T16:52:57.566Z,58.22
2023-01-17T16:55:26.884Z,58.10
2023-01-17T16:57:59.607Z,58.03
2023-01-17T17:00:28.262Z,56.77
2023-01-17T17:02:57.597Z,50.17
2023-01-17T17:05:27.026Z,55.10
2023-01-17T17:07:56.305Z,63.90
2023-01-17T17:10:26.420Z,72.25
2023-01-17T17:12:55.626Z,59.60
2023-01-17T17:15:23.890Z,62.25
2023-01-17T17:17:52.805Z,53.85
2023-01-17T17:20:21.254Z,53.20
2023-01-17T17:22:53.210Z,63.17
2023-01-17T17:25:21.621Z,63.97
2023-01-17T17:27:49.994Z,64.75
2023-01-17T17:30:19.500Z,67.38
2023-01-17T17:32:48.910Z,62.72
2023-01-17T17:35:17.680Z,71.60
2023-01-17T17:37:46.277Z,65.97
2023-01-17T17:40:14.688Z,67.07
2023-01-17T17:42:43.889Z,73.18
2023-01-17T17:45:12.781Z,79.53
2023-01-17T17:47:41.059Z,71.88
2023-01-17T17:50:10.446Z,77.32
2023-01-17T17:52:39.448Z,81.00
2023-01-17T17:55:08.509Z,87.00
2023-01-17T17:57:37.124Z,81.57
2023-01-17T18:00:06.492Z,74.45
2023-01-17T18:02:34.903Z,81.78
2023-01-17T18:05:04.270Z,82.60
2023-01-17T18:07:33.870Z,72.32
2023-01-17T18:10:02.491Z,81.60
2023-01-17T18:12:31.215Z,75.32
2023-01-17T18:14:59.868Z,75.30
2023-01-17T18:17:28.523Z,81.18
2023-01-17T18:19:56.529Z,79.25
2023-01-17T18:22:25.230Z,79.93
2023-01-17T18:24:53.875Z,75.53
2023-01-17T18:27:22.144Z,69.10
2023-01-17T18:29:50.721Z,69.97
2023-01-17T18:32:19.865Z,86.22
2023-01-17T18:34:48.970Z,90.20
2023-01-17T18:37:17.592Z,79.68
2023-01-17T18:39:45.746Z,82.30
2023-01-17T18:42:14.485Z,76.18
2023-01-17T18:44:42.680Z,80.85
2023-01-17T18:47:12.239Z,73.07
2023-01-17T18:49:41.017Z,83.00
2023-01-17T18:52:10.718Z,74.25
2023-01-17T18:54:39.353Z,73.47
2023-01-17T18:57:07.857Z,81.43
2023-01-17T18:59:36.507Z,73.95
2023-01-17T19:02:05.085Z,82.65
2023-01-17T19:04:35.371Z,77.05
2023-01-17T19:07:04.517Z,71.53
2023-01-17T19:09:33.498Z,81.15
2023-01-17T19:12:02.196Z,77.53
2023-01-17T19:14:30.882Z,73.18
2023-01-17T19:16:59.436Z,79.95
2023-01-17T19:19:28.098Z,81.78
2023-01-17T19:21:56.417Z,78.75
2023-01-17T19:24:26.135Z,78.75
2023-01-17T19:26:54.746Z,95.82
2023-01-17T19:29:23.975Z,83.93
2023-01-17T19:31:52.577Z,79.00
2023-01-17T19:34:21.638Z,87.93
2023-01-17T19:36:49.847Z,83.25
2023-01-17T19:39:18.480Z,86.57
2023-01-17T19:41:47.533Z,77.72
2023-01-17T19:44:16.442Z,84.03
2023-01-17T19:46:46.577Z,69.80
2023-01-17T19:49:17.618Z,73.18
2023-01-17T19:51:45.995Z,77.65
2023-01-17T19:54:16.435Z,75.80
2023-01-17T19:56:45.102Z,72.63
2023-01-17T19:59:15.159Z,62.13
2023-01-17T20:01:43.549Z,65.68
2023-01-17T20:04:14.078Z,73.10
2023-01-17T20:06:43.355Z,66.80
2023-01-17T20:09:11.773Z,65.90
2023-01-17T20:11:43.180Z,61.67
2023-01-17T20:14:15.409Z,63.70
2023-01-17T20:16:46.148Z,68.03
2023-01-17T20:19:14.945Z,67.80
2023-01-17T20:21:43.857Z,61.25
2023-01-17T20:24:14.526Z,67.88
2023-01-17T20:26:43.279Z,61.70
2023-01-17T20:29:17.297Z,62.95
2023-01-17T20:31:46.903Z,58.30
2023-01-17T20:34:19.668Z,58.97
2023-01-17T20:36:48.476Z,49.05
2023-01-17T20:39:20.959Z,48.13
2023-01-17T20:41:51.349Z,41.20
2023-01-17T20:44:21.067Z,41.78
2023-01-17T20:46:49.684Z,42.90
2023-01-17T20:49:20.460Z,36.13
2023-01-17T20:51:49.579Z,41.30
2023-01-17T20:54:20.275Z,38.55
2023-01-17T20:56:49.479Z,47.30
2023-01-17T20:59:20.073Z,38.33
2023-01-17T21:01:49.245Z,36.05
2023-01-17T21:04:19.251Z,33.67
2023-01-17T21:06:48.823Z,28.77
2023-01-17T21:09:18.487Z,28.85
2023-01-17T21:11:47.164Z,27.92
2023-01-17T21:14:15.738Z,26.48
2023-01-17T21:16:44.354Z,26.55
2023-01-17T21:19:16.207Z,30.02
2023-01-17T21:21:44.294Z,23.60
2023-01-17T21:24:17.629Z,23.67
2023-01-17T21:26:47.328Z,26.30
2023-01-17T21:29:17.239Z,29.30
2023-01-17T21:31:46.523Z,33.70
2023-01-17T21:34:15.171Z,33.97
2023-01-17T21:36:44.150Z,33.92
2023-01-17T21:39:21.278Z,33.40
2023-01-17T21:41:51.603Z,39.15
2023-01-17T21:44:22.515Z,33.58
2023-01-17T21:46:55.984Z,30.85
2023-01-17T21:49:25.123Z,35.40
2023-01-17T21:51:56.617Z,34.13
2023-01-17T21:54:45.661Z,36.55
2023-01-17T21:57:51.502Z,33.15
2023-01-17T22:00:20.476Z,39.65
2023-01-17T22:02:49.923Z,40.13
2023-01-17T22:05:19.857Z,36.53
2023-01-17T22:08:06.981Z,41.42
2023-01-17T22:10:45.689Z,38.92
2023-01-17T22:13:18.299Z,35.30
2023-01-17T22:15:47.161Z,36.38
2023-01-17T22:18:16.563Z,35.65
2023-01-17T22:20:44.859Z,37.15
2023-01-17T22:23:13.437Z,35.10
2023-01-17T22:25:41.989Z,43.33
2023-01-17T22:28:10.347Z,32.03
2023-01-17T22:30:39.444Z,35.22
2023-01-17T22:33:07.469Z,40.65
2023-01-17T22:35:36.197Z,31.23
2023-01-17T22:38:04.365Z,30.55
2023-01-17T22:40:33.935Z,30.17
2023-01-17T22:43:02.584Z,28.77
2023-01-17T22:45:30.819Z,30.17
2023-01-17T22:47:59.412Z,30.25
2023-01-17T22:50:28.063Z,30.70
2023-01-17T22:52:57.231Z,30.10
2023-01-17T22:55:25.689Z,32.40
2023-01-17T22:57:54.377Z,31.80
2023-01-17T23:00:22.971Z,32.22
2023-01-17T23:02:51.752Z,30.17
2023-01-17T23:05:21.199Z,32.20
2023-01-17T23:07:51.827Z,35.70
2023-01-17T23:10:40.468Z,32.50
2023-01-17T23:13:11.954Z,36.85
2023-01-17T23:15:59.372Z,39.58
2023-01-17T23:18:46.292Z,35.35
2023-01-17T23:21:14.933Z,35.63
2023-01-17T23:23:43.655Z,36.95
2023-01-17T23:26:12.213Z,31.95
2023-01-17T23:28:40.887Z,35.10
2023-01-17T23:31:11.649Z,33.90
2023-01-17T23:33:40.220Z,34.95
2023-01-17T23:36:10.217Z,30.60
2023-01-17T23:38:41.943Z,32.13
2023-01-17T23:41:29.390Z,34.95
2023-01-17T23:43:59.611Z,37.97
2023-01-17T23:46:28.046Z,33.78
2023-01-17T23:48:56.728Z,40.78
2023-01-17T23:51:24.849Z,33.15
2023-01-17T23:53:58.847Z,35.97
2023-01-17T23:56:27.475Z,39.42
2023-01-17T23:58:56.079Z,39.22
